createdAt,value
2016-08-04T00:00:12.490Z,0
2016-08-04T00:01:13.120Z,0
2016-08-04T00:02:13.183Z,0
2016-08-04T00:03:14.573Z,0
2016-08-04T00:04:13.905Z,0
2016-08-04T00:05:13.205Z,0
2016-08-04T00:06:14.640Z,0
2016-08-04T00:07:13.964Z,0
2016-08-04T00:08:14.077Z,0
2016-08-04T00:09:14.012Z,0
2016-08-04T00:10:14.020Z,0
2016-08-04T00:11:14.801Z,0
2016-08-04T00:12:14.211Z,0
2016-08-04T00:13:14.086Z,0
2016-08-04T00:14:13.407Z,0
2016-08-04T00:15:14.130Z,0
2016-08-04T00:16:14.162Z,0
2016-08-04T00:17:14.190Z,0
2016-08-04T00:18:13.478Z,0
2016-08-04T00:19:14.310Z,0
2016-08-04T00:20:14.228Z,0
2016-08-04T00:21:13.564Z,0
2016-08-04T00:22:14.290Z,0
2016-08-04T00:23:14.502Z,0
2016-08-04T00:24:15.051Z,0
2016-08-04T00:25:14.370Z,0
2016-08-04T00:26:12.962Z,0
2016-08-04T00:27:14.391Z,0
2016-08-04T00:28:14.424Z,0
2016-08-04T00:29:15.160Z,0
2016-08-04T00:30:15.173Z,0
2016-08-04T00:31:15.192Z,0
2016-08-04T00:32:14.632Z,0
2016-08-04T00:33:14.552Z,0
2016-08-04T00:34:15.262Z,0
2016-08-04T00:35:15.280Z,0
2016-08-04T00:36:14.591Z,0
2016-08-04T00:37:14.617Z,0
2016-08-04T00:38:15.347Z,0
2016-08-04T00:39:14.115Z,0
2016-08-04T00:40:14.682Z,0
2016-08-04T00:41:15.409Z,0
2016-08-04T00:42:14.029Z,0
2016-08-04T00:43:14.862Z,0
2016-08-04T00:44:14.058Z,0
2016-08-04T00:45:15.510Z,0
2016-08-04T00:46:15.517Z,0
2016-08-04T00:47:14.137Z,0
2016-08-04T00:48:14.861Z,0
2016-08-04T00:49:14.161Z,0
2016-08-04T00:50:14.908Z,0
2016-08-04T00:51:15.037Z,0
2016-08-04T00:52:13.530Z,0
2016-08-04T00:53:14.987Z,0
2016-08-04T00:54:13.591Z,0
2016-08-04T00:55:15.032Z,0
2016-08-04T00:56:15.745Z,0
2016-08-04T00:57:15.068Z,0
2016-08-04T00:58:15.161Z,0
2016-08-04T00:59:15.808Z,0
2016-08-04T01:00:14.428Z,0
2016-08-04T01:01:15.140Z,0
2016-08-04T01:02:15.297Z,0
2016-08-04T01:03:15.905Z,0
2016-08-04T01:04:14.506Z,0
2016-08-04T01:05:14.615Z,0
2016-08-04T01:06:14.546Z,0
2016-08-04T01:07:14.576Z,0
2016-08-04T01:08:15.302Z,0
2016-08-04T01:09:15.441Z,0
2016-08-04T01:10:14.611Z,0
2016-08-04T01:11:15.421Z,0
2016-08-04T01:12:14.750Z,0
2016-08-04T01:13:14.682Z,0
2016-08-04T01:14:16.151Z,0
2016-08-04T01:15:16.196Z,0
2016-08-04T01:16:16.201Z,0
2016-08-04T01:17:15.571Z,0
2016-08-04T01:18:15.542Z,0
2016-08-04T01:19:15.542Z,0
2016-08-04T01:20:16.260Z,0
2016-08-04T01:21:15.589Z,0
2016-08-04T01:22:15.600Z,0
2016-08-04T01:23:15.622Z,0
2016-08-04T01:24:14.936Z,0
2016-08-04T01:25:15.670Z,0
2016-08-04T01:26:15.678Z,0
2016-08-04T01:27:15.721Z,0
2016-08-04T01:28:15.749Z,0
2016-08-04T01:29:15.740Z,0
2016-08-04T01:30:15.771Z,0
2016-08-04T01:31:14.373Z,0
2016-08-04T01:32:16.522Z,0
2016-08-04T01:33:15.235Z,0
2016-08-04T01:34:15.865Z,0
2016-08-04T01:35:15.192Z,0
2016-08-04T01:36:15.893Z,0
2016-08-04T01:37:15.942Z,0
2016-08-04T01:38:15.242Z,0
2016-08-04T01:39:15.971Z,0
2016-08-04T01:40:16.684Z,0
2016-08-04T01:41:16.789Z,0
2016-08-04T01:42:16.740Z,0
2016-08-04T01:43:16.042Z,0
2016-08-04T01:44:16.150Z,0
2016-08-04T01:45:16.167Z,0
2016-08-04T01:46:15.481Z,0
2016-08-04T01:47:16.138Z,0
2016-08-04T01:48:16.929Z,0
2016-08-04T01:49:16.878Z,0
2016-08-04T01:50:15.564Z,0
2016-08-04T01:51:16.275Z,0
2016-08-04T01:52:14.838Z,0
2016-08-04T01:53:16.283Z,0
2016-08-04T01:54:15.564Z,0
2016-08-04T01:55:16.305Z,0
2016-08-04T01:56:16.433Z,0
2016-08-04T01:57:16.350Z,0
2016-08-04T01:58:16.353Z,0
2016-08-04T01:59:16.449Z,0
2016-08-04T02:00:16.403Z,0
2016-08-04T02:01:17.238Z,0
2016-08-04T02:02:16.434Z,0
2016-08-04T02:03:16.562Z,0
2016-08-04T02:04:15.147Z,0
2016-08-04T02:05:17.030Z,0
2016-08-04T02:06:17.230Z,0
2016-08-04T02:07:15.923Z,0
2016-08-04T02:08:15.891Z,0
2016-08-04T02:09:17.290Z,0
2016-08-04T02:10:16.622Z,0
2016-08-04T02:11:16.621Z,0
2016-08-04T02:12:15.962Z,0
2016-08-04T02:13:15.990Z,0
2016-08-04T02:14:15.973Z,0
2016-08-04T02:15:16.170Z,0
2016-08-04T02:16:15.323Z,0
2016-08-04T02:17:17.462Z,0
2016-08-04T02:18:16.784Z,0
2016-08-04T02:19:16.881Z,0
2016-08-04T02:21:16.243Z,0
2016-08-04T02:22:15.523Z,0
2016-08-04T02:23:16.888Z,0
2016-08-04T02:24:16.921Z,0
2016-08-04T02:25:16.211Z,0
2016-08-04T02:26:16.250Z,0
2016-08-04T02:27:15.559Z,0
2016-08-04T02:28:16.377Z,0
2016-08-04T02:29:17.021Z,0
2016-08-04T02:30:16.422Z,0
2016-08-04T02:31:17.038Z,0
2016-08-04T02:32:17.783Z,0
2016-08-04T02:33:17.827Z,0
2016-08-04T02:34:17.131Z,0
2016-08-04T02:36:16.435Z,0
2016-08-04T02:37:16.470Z,0
2016-08-04T02:38:17.201Z,0
2016-08-04T02:39:16.520Z,0
2016-08-04T02:40:17.259Z,0
2016-08-04T02:41:17.252Z,0
2016-08-04T02:42:17.282Z,0
2016-08-04T02:43:18.031Z,0
2016-08-04T02:44:17.332Z,0
2016-08-04T02:45:16.721Z,0
2016-08-04T02:46:17.365Z,0
2016-08-04T02:47:16.697Z,0
2016-08-04T02:48:18.109Z,0
2016-08-04T02:49:17.618Z,0
2016-08-04T02:51:17.535Z,0
2016-08-04T02:52:17.481Z,0
2016-08-04T02:53:17.611Z,0
2016-08-04T02:54:16.923Z,0
2016-08-04T02:55:16.854Z,0
2016-08-04T02:56:18.273Z,0
2016-08-04T02:57:17.588Z,0
2016-08-04T02:58:18.395Z,0
2016-08-04T02:59:17.622Z,0
2016-08-04T03:00:17.770Z,0
2016-08-04T03:01:18.377Z,0
2016-08-04T03:02:18.464Z,0
2016-08-04T03:03:17.113Z,0
2016-08-04T03:04:18.447Z,0
2016-08-04T03:05:17.051Z,4
2016-08-04T03:06:17.768Z,4
2016-08-04T03:07:17.083Z,4
2016-08-04T03:08:17.803Z,4
2016-08-04T03:09:18.011Z,0
2016-08-04T03:10:18.589Z,4
2016-08-04T03:11:18.682Z,4
2016-08-04T03:12:18.608Z,4
2016-08-04T03:13:17.967Z,4
2016-08-04T03:14:16.539Z,8
2016-08-04T03:15:18.744Z,4
2016-08-04T03:16:18.693Z,8
2016-08-04T03:17:18.101Z,4
2016-08-04T03:18:18.163Z,8
2016-08-04T03:19:17.340Z,8
2016-08-04T03:20:17.373Z,12
2016-08-04T03:21:18.081Z,12
2016-08-04T03:22:18.222Z,12
2016-08-04T03:23:18.137Z,16
2016-08-04T03:24:18.996Z,16
2016-08-04T03:25:18.169Z,16
2016-08-04T03:26:18.955Z,16
2016-08-04T03:27:17.515Z,24
2016-08-04T03:28:18.241Z,24
2016-08-04T03:29:18.951Z,28
2016-08-04T03:30:17.572Z,32
2016-08-04T03:31:18.294Z,36
2016-08-04T03:32:18.331Z,40
2016-08-04T03:33:19.046Z,48
2016-08-04T03:34:18.361Z,56
2016-08-04T03:35:19.089Z,64
2016-08-04T03:36:17.764Z,76
2016-08-04T03:37:18.466Z,88
2016-08-04T03:38:17.892Z,100
2016-08-04T03:39:17.055Z,108
2016-08-04T03:40:19.177Z,120
2016-08-04T03:41:19.212Z,128
2016-08-04T03:42:19.222Z,140
2016-08-04T03:43:18.608Z,148
2016-08-04T03:44:19.267Z,156
2016-08-04T03:45:18.605Z,164
2016-08-04T03:46:19.308Z,172
2016-08-04T03:47:17.911Z,184
2016-08-04T03:48:18.807Z,196
2016-08-04T03:49:18.672Z,208
2016-08-04T03:50:19.443Z,220
2016-08-04T03:51:18.758Z,220
2016-08-04T03:52:19.511Z,212
2016-08-04T03:53:18.753Z,216
2016-08-04T03:54:18.769Z,232
2016-08-04T03:55:18.790Z,256
2016-08-04T03:56:18.799Z,276
2016-08-04T03:57:18.119Z,284
2016-08-04T03:58:17.441Z,284
2016-08-04T03:59:18.932Z,288
2016-08-04T04:00:18.891Z,300
2016-08-04T04:01:17.501Z,312
2016-08-04T04:02:18.933Z,316
2016-08-04T04:03:19.693Z,300
2016-08-04T04:04:18.271Z,308
2016-08-04T04:05:19.061Z,324
2016-08-04T04:06:18.612Z,348
2016-08-04T04:07:18.342Z,376
2016-08-04T04:08:19.069Z,396
2016-08-04T04:09:17.679Z,388
2016-08-04T04:10:19.120Z,408
2016-08-04T04:11:18.432Z,392
2016-08-04T04:12:18.552Z,376
2016-08-04T04:13:19.855Z,404
2016-08-04T04:14:19.912Z,440
2016-08-04T04:15:18.508Z,484
2016-08-04T04:16:18.553Z,552
2016-08-04T04:17:19.935Z,612
2016-08-04T04:18:19.299Z,664
2016-08-04T04:19:19.299Z,680
2016-08-04T04:20:19.320Z,712
2016-08-04T04:21:18.644Z,712
2016-08-04T04:22:19.338Z,728
2016-08-04T04:23:18.729Z,768
2016-08-04T04:24:19.386Z,820
2016-08-04T04:25:20.242Z,904
2016-08-04T04:26:20.153Z,960
2016-08-04T04:27:19.513Z,968
2016-08-04T04:28:18.270Z,1016
2016-08-04T04:29:20.284Z,1076
2016-08-04T04:30:19.003Z,1152
2016-08-04T04:31:19.579Z,1240
2016-08-04T04:32:19.557Z,1416
2016-08-04T04:33:19.674Z,1404
2016-08-04T04:34:19.634Z,1488
2016-08-04T04:35:18.917Z,1812
2016-08-04T04:36:20.364Z,1852
2016-08-04T04:37:20.379Z,1812
2016-08-04T04:38:19.700Z,2052
2016-08-04T04:39:19.014Z,2284
2016-08-04T04:40:19.718Z,2444
2016-08-04T04:41:20.473Z,2704
2016-08-04T04:42:19.782Z,2608
2016-08-04T04:43:19.784Z,2540
2016-08-04T04:44:20.514Z,2484
2016-08-04T04:45:19.881Z,2604
2016-08-04T04:46:20.552Z,2840
2016-08-04T04:47:19.877Z,2716
2016-08-04T04:48:18.584Z,2844
2016-08-04T04:49:19.997Z,2940
2016-08-04T04:50:19.943Z,3088
2016-08-04T04:51:20.862Z,3020
2016-08-04T04:52:20.683Z,3156
2016-08-04T04:53:20.718Z,3088
2016-08-04T04:54:20.747Z,3028
2016-08-04T04:55:20.076Z,3020
2016-08-04T04:56:20.072Z,3332
2016-08-04T04:57:20.097Z,3600
2016-08-04T04:58:20.100Z,3884
2016-08-04T04:59:20.143Z,4080
2016-08-04T05:00:20.244Z,4540
2016-08-04T05:01:20.171Z,5252
2016-08-04T05:02:20.906Z,5580
2016-08-04T05:03:20.252Z,5280
2016-08-04T05:04:20.964Z,4744
2016-08-04T05:05:20.267Z,4616
2016-08-04T05:06:20.303Z,4952
2016-08-04T05:07:19.590Z,4992
2016-08-04T05:08:19.626Z,4744
2016-08-04T05:09:20.352Z,4620
2016-08-04T05:10:20.362Z,4520
2016-08-04T05:11:21.102Z,5024
2016-08-04T05:12:19.701Z,5604
2016-08-04T05:13:19.739Z,5796
2016-08-04T05:14:21.154Z,5880
2016-08-04T05:15:19.104Z,6188
2016-08-04T05:16:19.083Z,6564
2016-08-04T05:17:19.811Z,6780
2016-08-04T05:18:21.265Z,6988
2016-08-04T05:19:19.851Z,7520
2016-08-04T05:20:21.277Z,7072
2016-08-04T05:21:21.321Z,6404
2016-08-04T05:22:21.334Z,6012
2016-08-04T05:23:21.374Z,5832
2016-08-04T05:24:21.403Z,5672
2016-08-04T05:25:20.690Z,5588
2016-08-04T05:26:20.021Z,5264
2016-08-04T05:27:21.441Z,5040
2016-08-04T05:28:20.077Z,4864
2016-08-04T05:29:20.779Z,5520
2016-08-04T05:30:20.821Z,7144
2016-08-04T05:31:20.853Z,8412
2016-08-04T05:32:21.578Z,8920
2016-08-04T05:33:20.949Z,8640
2016-08-04T05:34:20.174Z,8412
2016-08-04T05:35:20.984Z,8492
2016-08-04T05:36:21.620Z,9568
2016-08-04T05:37:20.261Z,11900
2016-08-04T05:38:19.572Z,7984
2016-08-04T05:39:20.402Z,7180
2016-08-04T05:40:21.033Z,7396
2016-08-04T05:41:21.042Z,7964
2016-08-04T05:42:21.062Z,8784
2016-08-04T05:43:21.143Z,9032
2016-08-04T05:44:21.133Z,8812
2016-08-04T05:45:20.443Z,9056
2016-08-04T05:46:21.168Z,10504
2016-08-04T05:47:20.502Z,11312
2016-08-04T05:48:20.507Z,11824
2016-08-04T05:49:21.232Z,9204
2016-08-04T05:50:20.570Z,8948
2016-08-04T05:51:21.448Z,7820
2016-08-04T05:52:22.219Z,8192
2016-08-04T05:53:22.212Z,8724
2016-08-04T05:54:19.940Z,9340
2016-08-04T05:55:22.291Z,11380
2016-08-04T05:56:21.400Z,9700
2016-08-04T05:57:21.566Z,7800
2016-08-04T05:58:20.751Z,6100
2016-08-04T05:59:21.542Z,5268
2016-08-04T06:00:21.553Z,3812
2016-08-04T06:01:20.113Z,3992
2016-08-04T06:02:21.597Z,4108
2016-08-04T06:03:22.499Z,4420
2016-08-04T06:04:21.032Z,4444
2016-08-04T06:05:21.160Z,4140
2016-08-04T06:06:22.911Z,4840
2016-08-04T06:07:21.949Z,5276
2016-08-04T06:08:21.092Z,5620
2016-08-04T06:09:21.011Z,5208
2016-08-04T06:10:21.863Z,5648
2016-08-04T06:11:22.524Z,7148
2016-08-04T06:12:21.889Z,7052
2016-08-04T06:13:22.528Z,6612
2016-08-04T06:14:22.542Z,6568
2016-08-04T06:15:21.852Z,6720
2016-08-04T06:16:20.453Z,7712
2016-08-04T06:17:22.606Z,6276
2016-08-04T06:18:20.512Z,4960
2016-08-04T06:19:21.250Z,5364
2016-08-04T06:20:21.282Z,6624
2016-08-04T06:22:21.316Z,6932
2016-08-04T06:23:22.197Z,6060
2016-08-04T06:24:22.063Z,6372
2016-08-04T06:25:21.384Z,7752
2016-08-04T06:26:21.401Z,6156
2016-08-04T06:27:22.116Z,6564
2016-08-04T06:28:21.473Z,5868
2016-08-04T06:29:22.181Z,5736
2016-08-04T06:30:22.891Z,5084
2016-08-04T06:31:20.903Z,5416
2016-08-04T06:32:22.394Z,7420
2016-08-04T06:33:22.291Z,8160
2016-08-04T06:34:22.300Z,9696
2016-08-04T06:35:23.032Z,9456
2016-08-04T06:37:23.089Z,9192
2016-08-04T06:38:21.734Z,8284
2016-08-04T06:39:21.861Z,8092
2016-08-04T06:40:22.443Z,9448
2016-08-04T06:41:21.818Z,8936
2016-08-04T06:42:21.768Z,8820
2016-08-04T06:43:21.796Z,8564
2016-08-04T06:44:22.546Z,7648
2016-08-04T06:45:21.874Z,7000
2016-08-04T06:46:23.283Z,7460
2016-08-04T06:47:22.643Z,8668
2016-08-04T06:48:23.332Z,9560
2016-08-04T06:49:22.642Z,10500
2016-08-04T06:50:23.363Z,10088
2016-08-04T06:52:23.433Z,9984
2016-08-04T06:53:22.755Z,10272
2016-08-04T06:54:22.142Z,9524
2016-08-04T06:55:23.515Z,8444
2016-08-04T06:56:22.843Z,9312
2016-08-04T06:57:22.846Z,9384
2016-08-04T06:58:22.868Z,12088
2016-08-04T06:59:22.879Z,8112
2016-08-04T07:00:23.601Z,9480
2016-08-04T07:01:23.642Z,9876
2016-08-04T07:02:22.312Z,8912
2016-08-04T07:03:22.336Z,8424
2016-08-04T07:04:22.294Z,8440
2016-08-04T07:05:23.744Z,8828
2016-08-04T07:07:22.375Z,9680
2016-08-04T07:08:23.802Z,10908
2016-08-04T07:09:22.421Z,10840
2016-08-04T07:10:22.465Z,10740
2016-08-04T07:11:23.880Z,10576
2016-08-04T07:12:22.494Z,10652
2016-08-04T07:13:23.219Z,10208
2016-08-04T07:14:22.683Z,10940
2016-08-04T07:15:22.580Z,9760
2016-08-04T07:16:23.992Z,8224
2016-08-04T07:17:24.011Z,10180
2016-08-04T07:18:24.052Z,10036
2016-08-04T07:19:23.384Z,8096
2016-08-04T07:20:23.519Z,8156
2016-08-04T07:22:22.744Z,9340
2016-08-04T07:23:23.443Z,8732
2016-08-04T07:24:24.323Z,9072
2016-08-04T07:25:24.233Z,8992
2016-08-04T07:26:22.839Z,11064
2016-08-04T07:27:24.288Z,9844
2016-08-04T07:28:22.881Z,10424
2016-08-04T07:29:23.604Z,8900
2016-08-04T07:30:24.341Z,7808
2016-08-04T07:31:22.310Z,8048
2016-08-04T07:32:23.674Z,7568
2016-08-04T07:33:23.699Z,7164
2016-08-04T07:34:24.431Z,7660
2016-08-04T07:35:23.770Z,9120
2016-08-04T07:37:23.113Z,9248
2016-08-04T07:38:24.549Z,9332
2016-08-04T07:39:24.577Z,10104
2016-08-04T07:40:23.283Z,11268
2016-08-04T07:41:23.904Z,11272
2016-08-04T07:42:23.978Z,12876
2016-08-04T07:43:23.963Z,12440
2016-08-04T07:44:24.020Z,11604
2016-08-04T07:45:24.700Z,15208
2016-08-04T07:46:24.011Z,16384
2016-08-04T07:47:24.098Z,22080
2016-08-04T07:48:23.361Z,26176
2016-08-04T07:49:23.494Z,23584
2016-08-04T07:50:24.113Z,22464
2016-08-04T07:52:24.184Z,15712
2016-08-04T07:53:24.952Z,21632
2016-08-04T07:54:24.212Z,20960
2016-08-04T07:55:23.532Z,22112
2016-08-04T07:56:24.978Z,36992
2016-08-04T07:57:25.020Z,24864
2016-08-04T07:58:24.352Z,23232
2016-08-04T07:59:24.342Z,45344
2016-08-04T08:00:24.372Z,22400
2016-08-04T08:01:25.129Z,19104
2016-08-04T08:02:25.127Z,20288
2016-08-04T08:03:24.456Z,16256
2016-08-04T08:04:23.784Z,15872
2016-08-04T08:05:23.183Z,14652
2016-08-04T08:07:24.556Z,16864
2016-08-04T08:08:23.880Z,16704
2016-08-04T08:09:24.617Z,16064
2016-08-04T08:10:24.635Z,16768
2016-08-04T08:11:24.684Z,17568
2016-08-04T08:12:23.985Z,17856
2016-08-04T08:13:23.299Z,17248
2016-08-04T08:14:24.743Z,16192
2016-08-04T08:15:24.061Z,16800
2016-08-04T08:16:24.075Z,15968
2016-08-04T08:17:25.547Z,14868
2016-08-04T08:18:23.434Z,17408
2016-08-04T08:19:24.872Z,14188
2016-08-04T08:20:25.603Z,13784
2016-08-04T08:22:23.548Z,17760
2016-08-04T08:23:24.285Z,17472
2016-08-04T08:24:25.710Z,17760
2016-08-04T08:25:24.341Z,16736
2016-08-04T08:26:25.082Z,17568
2016-08-04T08:27:24.552Z,16800
2016-08-04T08:28:25.271Z,15840
2016-08-04T08:29:25.994Z,16160
2016-08-04T08:30:25.284Z,16704
2016-08-04T08:31:25.298Z,18976
2016-08-04T08:32:25.274Z,17536
2016-08-04T08:33:26.062Z,19040
2016-08-04T08:34:26.033Z,16992
2016-08-04T08:35:26.050Z,21440
2016-08-04T08:37:23.973Z,25568
2016-08-04T08:38:26.079Z,24864
2016-08-04T08:39:24.692Z,21056
2016-08-04T08:40:24.824Z,20704
2016-08-04T08:41:25.532Z,19968
2016-08-04T08:42:24.781Z,19456
2016-08-04T08:43:25.529Z,15296
2016-08-04T08:44:26.252Z,16800
2016-08-04T08:45:24.872Z,17504
2016-08-04T08:46:26.300Z,18912
2016-08-04T08:47:25.642Z,20864
2016-08-04T08:48:25.742Z,21632
2016-08-04T08:49:25.680Z,19424
2016-08-04T08:50:25.772Z,16960
2016-08-04T08:51:25.798Z,15260
2016-08-04T08:52:25.768Z,15872
2016-08-04T08:53:25.790Z,15936
2016-08-04T08:54:25.822Z,20000
2016-08-04T08:55:25.847Z,19200
2016-08-04T08:56:25.862Z,18112
2016-08-04T08:57:25.894Z,14020
2016-08-04T08:58:25.910Z,14096
2016-08-04T08:59:25.958Z,19840
2016-08-04T09:00:26.679Z,18368
2016-08-04T09:01:26.732Z,18304
2016-08-04T09:02:26.033Z,16672
2016-08-04T09:03:26.776Z,16416
2016-08-04T09:04:26.163Z,16800
2016-08-04T09:05:25.401Z,19168
2016-08-04T09:06:25.558Z,18048
2016-08-04T09:07:26.163Z,19456
2016-08-04T09:08:26.930Z,21888
2016-08-04T09:09:26.234Z,20160
2016-08-04T09:10:25.726Z,19360
2016-08-04T09:11:27.003Z,23840
2016-08-04T09:12:27.036Z,23072
2016-08-04T09:13:26.330Z,22688
2016-08-04T09:14:27.062Z,22432
2016-08-04T09:15:26.484Z,19488
2016-08-04T09:16:25.714Z,17056
2016-08-04T09:17:26.670Z,16768
2016-08-04T09:18:25.756Z,15780
2016-08-04T09:19:27.382Z,15980
2016-08-04T09:20:26.523Z,15424
2016-08-04T09:21:26.540Z,14236
2016-08-04T09:22:26.572Z,13804
2016-08-04T09:23:26.601Z,13712
2016-08-04T09:24:26.760Z,15288
2016-08-04T09:25:26.663Z,13632
2016-08-04T09:26:25.981Z,13692
2016-08-04T09:27:26.718Z,13492
2016-08-04T09:28:26.032Z,14220
2016-08-04T09:29:26.045Z,15616
2016-08-04T09:30:25.391Z,16800
2016-08-04T09:31:26.822Z,16032
2016-08-04T09:32:26.843Z,16608
2016-08-04T09:33:26.159Z,16384
2016-08-04T09:34:26.203Z,15152
2016-08-04T09:35:26.213Z,13888
2016-08-04T09:36:27.862Z,14652
2016-08-04T09:37:27.081Z,16416
2016-08-04T09:38:26.281Z,16320
2016-08-04T09:39:26.330Z,16608
2016-08-04T09:40:27.049Z,18880
2016-08-04T09:41:26.377Z,17536
2016-08-04T09:42:25.686Z,18496
2016-08-04T09:43:26.436Z,16160
2016-08-04T09:44:25.752Z,14152
2016-08-04T09:45:27.182Z,16288
2016-08-04T09:46:27.930Z,17344
2016-08-04T09:47:28.071Z,16352
2016-08-04T09:48:27.983Z,14176
2016-08-04T09:49:27.324Z,15012
2016-08-04T09:50:27.326Z,14392
2016-08-04T09:51:28.038Z,12280
2016-08-04T09:52:28.191Z,11972
2016-08-04T09:53:28.111Z,12384
2016-08-04T09:54:28.211Z,12080
2016-08-04T09:55:28.149Z,12436
2016-08-04T09:56:27.489Z,15372
2016-08-04T09:57:27.553Z,14032
2016-08-04T09:58:26.127Z,12264
2016-08-04T09:59:28.273Z,11712
2016-08-04T10:00:27.589Z,12064
2016-08-04T10:01:26.940Z,11780
2016-08-04T10:02:27.657Z,11764
2016-08-04T10:03:27.700Z,11728
2016-08-04T10:04:28.422Z,11916
2016-08-04T10:05:26.292Z,12828
2016-08-04T10:06:28.452Z,12312
2016-08-04T10:07:27.781Z,12152
2016-08-04T10:08:28.531Z,11900
2016-08-04T10:09:27.110Z,13020
2016-08-04T10:10:27.230Z,13868
2016-08-04T10:11:28.045Z,14132
2016-08-04T10:12:28.719Z,14596
2016-08-04T10:13:27.215Z,15500
2016-08-04T10:14:28.757Z,16896
2016-08-04T10:15:28.051Z,16192
2016-08-04T10:16:28.072Z,17216
2016-08-04T10:17:27.433Z,17952
2016-08-04T10:18:27.348Z,19712
2016-08-04T10:19:27.450Z,17792
2016-08-04T10:20:28.122Z,18976
2016-08-04T10:21:28.281Z,18048
2016-08-04T10:22:28.890Z,18272
2016-08-04T10:23:28.258Z,21408
2016-08-04T10:24:28.222Z,20992
2016-08-04T10:25:28.480Z,18304
2016-08-04T10:26:28.281Z,18496
2016-08-04T10:27:29.015Z,14996
2016-08-04T10:28:29.062Z,14024
2016-08-04T10:29:28.375Z,13788
2016-08-04T10:30:29.097Z,13948
2016-08-04T10:31:28.430Z,13312
2016-08-04T10:32:28.588Z,15904
2016-08-04T10:33:29.179Z,14408
2016-08-04T10:34:28.594Z,12056
2016-08-04T10:35:27.828Z,11888
2016-08-04T10:36:27.858Z,12656
2016-08-04T10:37:27.432Z,14892
2016-08-04T10:38:28.642Z,16000
2016-08-04T10:39:28.182Z,17088
2016-08-04T10:40:27.250Z,18720
2016-08-04T10:41:27.980Z,21760
2016-08-04T10:42:28.723Z,21824
2016-08-04T10:43:28.179Z,20608
2016-08-04T10:44:28.370Z,17024
2016-08-04T10:45:29.580Z,14720
2016-08-04T10:46:28.837Z,14940
2016-08-04T10:47:28.190Z,11016
2016-08-04T10:48:28.871Z,12088
2016-08-04T10:49:28.201Z,14084
2016-08-04T10:50:28.391Z,14648
2016-08-04T10:51:28.261Z,15584
2016-08-04T10:52:30.250Z,13964
2016-08-04T10:53:29.727Z,14316
2016-08-04T10:54:29.130Z,14100
2016-08-04T10:55:29.071Z,16544
2016-08-04T10:56:28.409Z,15680
2016-08-04T10:57:28.431Z,16256
2016-08-04T10:58:29.857Z,16544
2016-08-04T10:59:29.890Z,14660
2016-08-04T11:00:29.227Z,13956
2016-08-04T11:01:29.239Z,14932
2016-08-04T11:02:29.986Z,14316
2016-08-04T11:03:29.347Z,13224
2016-08-04T11:04:30.043Z,13948
2016-08-04T11:05:27.948Z,12340
2016-08-04T11:06:28.790Z,12488
2016-08-04T11:07:30.692Z,14668
2016-08-04T11:08:29.427Z,14412
2016-08-04T11:09:29.530Z,11924
2016-08-04T11:10:28.083Z,13264
2016-08-04T11:11:29.530Z,15224
2016-08-04T11:12:30.341Z,16896
2016-08-04T11:13:29.591Z,17696
2016-08-04T11:14:28.900Z,18880
2016-08-04T11:15:30.340Z,19488
2016-08-04T11:16:28.971Z,19648
2016-08-04T11:17:29.685Z,19232
2016-08-04T11:18:29.720Z,18784
2016-08-04T11:19:28.391Z,17440
2016-08-04T11:20:29.772Z,17888
2016-08-04T11:21:31.083Z,16800
2016-08-04T11:22:30.119Z,15328
2016-08-04T11:23:30.002Z,15264
2016-08-04T11:24:29.891Z,14280
2016-08-04T11:25:30.680Z,15680
2016-08-04T11:26:28.642Z,16352
2016-08-04T11:27:29.248Z,15776
2016-08-04T11:28:29.299Z,17440
2016-08-04T11:29:30.023Z,17312
2016-08-04T11:30:29.340Z,12840
2016-08-04T11:31:30.821Z,9764
2016-08-04T11:32:30.096Z,10408
2016-08-04T11:33:29.482Z,12636
2016-08-04T11:34:30.270Z,11860
2016-08-04T11:35:29.484Z,9812
2016-08-04T11:36:29.645Z,8136
2016-08-04T11:37:31.512Z,8020
2016-08-04T11:38:29.561Z,8156
2016-08-04T11:39:30.287Z,8392
2016-08-04T11:40:30.318Z,8444
2016-08-04T11:41:31.067Z,11664
2016-08-04T11:42:29.670Z,13620
2016-08-04T11:43:29.705Z,13528
2016-08-04T11:44:31.151Z,14404
2016-08-04T11:45:30.492Z,14852
2016-08-04T11:46:31.184Z,13972
2016-08-04T11:47:30.580Z,13508
2016-08-04T11:48:31.249Z,13060
2016-08-04T11:49:29.145Z,13000
2016-08-04T11:50:29.890Z,12704
2016-08-04T11:51:30.891Z,12728
2016-08-04T11:52:31.673Z,12620
2016-08-04T11:53:29.979Z,12604
2016-08-04T11:54:30.001Z,12596
2016-08-04T11:55:31.571Z,13060
2016-08-04T11:56:31.478Z,14016
2016-08-04T11:57:30.067Z,13592
2016-08-04T11:58:30.800Z,13060
2016-08-04T11:59:30.837Z,12988
2016-08-04T12:00:29.444Z,12864
2016-08-04T12:01:29.492Z,12612
2016-08-04T12:02:30.212Z,12320
2016-08-04T12:03:30.955Z,12716
2016-08-04T12:04:29.559Z,13008
2016-08-04T12:05:30.429Z,12268
2016-08-04T12:06:30.326Z,13804
2016-08-04T12:08:31.087Z,11772
2016-08-04T12:09:30.409Z,11544
2016-08-04T12:10:30.430Z,12360
2016-08-04T12:11:31.910Z,14852
2016-08-04T12:12:29.782Z,14864
2016-08-04T12:13:31.230Z,14452
2016-08-04T12:14:30.532Z,15840
2016-08-04T12:15:30.554Z,13304
2016-08-04T12:16:31.300Z,12232
2016-08-04T12:17:32.030Z,11792
2016-08-04T12:18:31.383Z,11028
2016-08-04T12:19:30.710Z,11788
2016-08-04T12:20:31.394Z,11648
2016-08-04T12:21:31.430Z,11976
2016-08-04T12:22:31.849Z,13444
2016-08-04T12:23:31.787Z,13104
2016-08-04T12:24:31.691Z,13312
2016-08-04T12:25:32.078Z,12480
2016-08-04T12:26:31.574Z,12140
2016-08-04T12:27:32.330Z,12336
2016-08-04T12:28:31.686Z,12532
2016-08-04T12:29:32.365Z,12648
2016-08-04T12:30:31.701Z,12668
2016-08-04T12:31:31.156Z,12748
2016-08-04T12:32:31.862Z,12984
2016-08-04T12:33:31.819Z,13392
2016-08-04T12:34:31.075Z,13472
2016-08-04T12:35:32.620Z,13900
2016-08-04T12:36:32.701Z,13556
2016-08-04T12:38:31.278Z,12740
2016-08-04T12:39:31.209Z,12780
2016-08-04T12:40:31.298Z,13036
2016-08-04T12:41:32.679Z,12920
2016-08-04T12:42:32.020Z,11956
2016-08-04T12:43:31.351Z,11740
2016-08-04T12:44:31.371Z,11788
2016-08-04T12:45:31.380Z,11620
2016-08-04T12:46:30.707Z,11748
2016-08-04T12:47:32.238Z,12172
2016-08-04T12:48:31.464Z,12200
2016-08-04T12:49:33.080Z,12160
2016-08-04T12:50:30.797Z,12492
2016-08-04T12:51:31.547Z,13044
2016-08-04T12:53:33.099Z,12180
2016-08-04T12:54:32.321Z,11600
2016-08-04T12:55:32.451Z,11480
2016-08-04T12:56:31.691Z,11756
2016-08-04T12:57:32.411Z,12396
2016-08-04T12:58:32.611Z,12392
2016-08-04T12:59:32.492Z,11280
2016-08-04T13:00:32.649Z,10412
2016-08-04T13:01:33.221Z,9964
2016-08-04T13:02:32.609Z,9816
2016-08-04T13:03:31.881Z,10404
2016-08-04T13:04:31.906Z,10796
2016-08-04T13:05:32.641Z,10440
2016-08-04T13:06:32.664Z,10124
2016-08-04T13:08:33.440Z,9568
2016-08-04T13:09:32.737Z,9248
2016-08-04T13:10:32.775Z,9340
2016-08-04T13:11:33.509Z,10040
2016-08-04T13:12:32.841Z,11108
2016-08-04T13:13:32.144Z,11284
2016-08-04T13:14:32.881Z,11428
2016-08-04T13:15:32.209Z,12552
2016-08-04T13:16:32.969Z,12696
2016-08-04T13:17:33.670Z,13516
2016-08-04T13:18:32.997Z,13012
2016-08-04T13:19:32.321Z,12856
2016-08-04T13:20:33.883Z,12396
2016-08-04T13:21:31.666Z,11852
2016-08-04T13:22:33.150Z,12236
2016-08-04T13:23:33.126Z,11916
2016-08-04T13:24:33.191Z,12444
2016-08-04T13:25:33.194Z,12464
2016-08-04T13:26:33.964Z,11968
2016-08-04T13:27:33.445Z,12144
2016-08-04T13:28:33.267Z,13176
2016-08-04T13:29:34.222Z,13496
2016-08-04T13:30:33.322Z,13372
2016-08-04T13:31:33.360Z,14340
2016-08-04T13:32:34.097Z,15232
2016-08-04T13:33:32.777Z,15712
2016-08-04T13:34:33.418Z,16352
2016-08-04T13:35:34.185Z,16256
2016-08-04T13:36:34.189Z,15936
2016-08-04T13:37:34.301Z,14892
2016-08-04T13:39:34.271Z,15808
2016-08-04T13:40:34.323Z,15200
2016-08-04T13:41:32.901Z,16384
2016-08-04T13:42:34.460Z,16928
2016-08-04T13:43:34.392Z,17344
2016-08-04T13:44:34.464Z,17920
2016-08-04T13:45:33.728Z,18432
2016-08-04T13:46:34.591Z,18432